createdAt,value
2017-07-05T00:00:40.132Z,19.20
2017-07-05T00:03:09.274Z,21.33
2017-07-05T00:05:38.351Z,19.60
2017-07-05T00:08:07.423Z,19.50
2017-07-05T00:10:37.252Z,22.50
2017-07-05T00:13:06.352Z,20.50
2017-07-05T00:15:35.456Z,19.60
2017-07-05T00:18:04.696Z,18.60
2017-07-05T00:20:33.759Z,18.40
2017-07-05T00:23:02.828Z,21.20
2017-07-05T00:25:31.938Z,22.47
2017-07-05T00:28:01.001Z,24.63
2017-07-05T00:30:30.852Z,21.70
2017-07-05T00:32:59.933Z,20.83
2017-07-05T00:35:29.003Z,21.00
2017-07-05T00:37:58.036Z,19.90
2017-07-05T00:40:27.142Z,24.43
2017-07-05T00:42:56.226Z,17.70
2017-07-05T00:45:25.295Z,20.53
2017-07-05T00:47:54.371Z,19.80
2017-07-05T00:50:24.230Z,21.73
2017-07-05T00:52:53.313Z,20.07
2017-07-05T00:55:22.386Z,22.07
2017-07-05T00:57:52.237Z,19.93
2017-07-05T01:00:21.315Z,20.80
2017-07-05T01:02:50.399Z,23.90
2017-07-05T01:05:19.471Z,20.70
2017-07-05T01:07:49.312Z,22.17
2017-07-05T01:10:18.429Z,23.03
2017-07-05T01:12:47.506Z,19.33
2017-07-05T01:15:16.616Z,19.03
2017-07-05T01:17:45.680Z,19.93
2017-07-05T01:20:14.865Z,21.37
2017-07-05T01:22:43.912Z,25.33
2017-07-05T01:25:12.970Z,19.30
2017-07-05T01:27:42.806Z,24.87
2017-07-05T01:30:11.877Z,21.30
2017-07-05T01:32:40.952Z,20.63
2017-07-05T01:35:10.049Z,18.77
2017-07-05T01:37:39.129Z,22.37
2017-07-05T01:40:08.190Z,22.10
2017-07-05T01:42:37.272Z,21.30
2017-07-05T01:45:06.373Z,21.47
2017-07-05T01:47:35.437Z,23.50
2017-07-05T01:50:05.278Z,23.20
2017-07-05T01:52:34.374Z,24.37
2017-07-05T01:55:03.545Z,26.73
2017-07-05T01:57:32.616Z,27.33
2017-07-05T02:00:01.678Z,25.13
2017-07-05T02:02:30.756Z,29.60
2017-07-05T02:04:59.805Z,28.13
2017-07-05T02:07:28.886Z,26.33
2017-07-05T02:09:57.949Z,24.77
2017-07-05T02:12:27.008Z,25.20
2017-07-05T02:14:56.857Z,27.13
2017-07-05T02:17:25.933Z,29.90
2017-07-05T02:19:55.164Z,25.20
2017-07-05T02:22:24.257Z,29.10
2017-07-05T02:24:53.299Z,25.17
2017-07-05T02:27:23.133Z,26.60
2017-07-05T02:29:52.971Z,26.83
2017-07-05T02:32:22.074Z,25.60
2017-07-05T02:34:51.133Z,25.10
2017-07-05T02:37:20.931Z,23.80
2017-07-05T02:39:50.765Z,26.40
2017-07-05T02:42:20.061Z,25.60
2017-07-05T02:44:49.100Z,29.47
2017-07-05T02:47:18.201Z,22.93
2017-07-05T02:49:47.275Z,24.53
2017-07-05T02:52:16.394Z,25.93
2017-07-05T02:54:45.496Z,24.37
2017-07-05T02:57:14.598Z,24.47
2017-07-05T02:59:43.708Z,24.93
2017-07-05T03:02:14.036Z,25.97
2017-07-05T03:04:43.866Z,24.37
2017-07-05T03:07:12.929Z,24.80
2017-07-05T03:09:41.997Z,23.30
2017-07-05T03:12:11.153Z,22.10
2017-07-05T03:14:40.975Z,25.80
2017-07-05T03:17:10.058Z,24.77
2017-07-05T03:19:39.114Z,23.87
2017-07-05T03:22:08.193Z,24.20
2017-07-05T03:24:37.355Z,26.63
2017-07-05T03:27:06.387Z,22.03
2017-07-05T03:29:35.457Z,21.97
2017-07-05T03:32:04.585Z,23.90
2017-07-05T03:34:33.639Z,25.13
2017-07-05T03:37:02.712Z,27.20
2017-07-05T03:39:32.559Z,23.57
2017-07-05T03:42:01.629Z,24.23
2017-07-05T03:44:30.723Z,24.80
2017-07-05T03:47:00.547Z,24.17
2017-07-05T03:49:30.393Z,24.97
2017-07-05T03:51:59.453Z,23.37
2017-07-05T03:54:28.539Z,24.43
2017-07-05T03:56:57.651Z,22.80
2017-07-05T03:59:27.461Z,23.97
2017-07-05T04:01:56.545Z,23.50
2017-07-05T04:04:26.392Z,27.77
2017-07-05T04:06:55.455Z,23.83
2017-07-05T04:09:24.520Z,23.47
2017-07-05T04:11:53.591Z,22.33
2017-07-05T04:14:22.664Z,25.00
2017-07-05T04:16:51.720Z,23.07
2017-07-05T04:19:21.544Z,25.17
2017-07-05T04:21:50.630Z,23.00
2017-07-05T04:24:20.467Z,23.33
2017-07-05T04:26:49.556Z,24.20
2017-07-05T04:29:18.626Z,23.57
2017-07-05T04:31:47.694Z,24.33
2017-07-05T04:34:16.982Z,23.57
2017-07-05T04:36:46.037Z,23.60
2017-07-05T04:39:15.857Z,24.30
2017-07-05T04:41:44.946Z,23.53
2017-07-05T04:44:14.001Z,23.30
2017-07-05T04:46:43.079Z,22.50
2017-07-05T04:49:12.153Z,23.57
2017-07-05T04:51:41.642Z,23.47
2017-07-05T04:54:11.628Z,26.40
2017-07-05T04:56:40.636Z,23.00
2017-07-05T04:59:09.714Z,24.43
2017-07-05T05:01:38.793Z,24.43
2017-07-05T05:04:07.886Z,26.70
2017-07-05T05:06:36.949Z,24.13
2017-07-05T05:09:06.094Z,24.13
2017-07-05T05:11:35.154Z,24.83
2017-07-05T05:14:04.252Z,21.80
2017-07-05T05:16:33.319Z,24.30
2017-07-05T05:19:02.409Z,24.37
2017-07-05T05:21:31.472Z,20.87
2017-07-05T05:24:00.551Z,22.40
2017-07-05T05:26:29.627Z,21.30
2017-07-05T05:28:58.733Z,20.53
2017-07-05T05:31:27.821Z,24.60
2017-07-05T05:33:57.119Z,21.20
2017-07-05T05:36:26.176Z,21.67
2017-07-05T05:38:55.250Z,20.83
2017-07-05T05:41:24.352Z,20.53
2017-07-05T05:43:53.429Z,20.63
2017-07-05T05:46:22.507Z,21.23
2017-07-05T05:48:51.616Z,19.87
2017-07-05T05:51:20.655Z,19.50
2017-07-05T05:53:49.712Z,19.13
2017-07-05T05:56:18.811Z,20.13
2017-07-05T05:58:47.867Z,21.33
2017-07-05T06:01:16.937Z,18.43
2017-07-05T06:03:46.054Z,18.47
2017-07-05T06:06:15.109Z,19.37
2017-07-05T06:08:44.197Z,18.47
2017-07-05T06:11:13.257Z,19.10
2017-07-05T06:13:42.345Z,17.17
2017-07-05T06:16:11.397Z,21.23
2017-07-05T06:18:40.476Z,19.47
2017-07-05T06:21:09.585Z,19.70
2017-07-05T06:23:38.662Z,17.50
2017-07-05T06:26:07.810Z,17.60
2017-07-05T06:28:36.887Z,18.87
2017-07-05T06:31:05.976Z,17.87
2017-07-05T06:33:35.059Z,18.57
2017-07-05T06:36:04.210Z,15.90
2017-07-05T06:38:33.324Z,19.27
2017-07-05T06:41:02.404Z,16.67
2017-07-05T06:43:31.456Z,17.13
2017-07-05T06:46:00.556Z,17.63
2017-07-05T06:48:29.595Z,17.17
2017-07-05T06:50:58.677Z,17.03
2017-07-05T06:53:27.748Z,15.60
2017-07-05T06:55:56.797Z,17.37
2017-07-05T06:58:25.881Z,18.80
2017-07-05T07:00:54.930Z,16.67
2017-07-05T07:03:24.005Z,17.03
2017-07-05T07:05:53.082Z,21.27
2017-07-05T07:08:22.193Z,20.10
2017-07-05T07:10:51.284Z,20.37
2017-07-05T07:13:20.419Z,20.90
2017-07-05T07:15:49.476Z,24.60
2017-07-05T07:18:18.566Z,22.30
2017-07-05T07:20:47.856Z,24.40
2017-07-05T07:23:16.935Z,29.27
2017-07-05T07:25:46.033Z,23.90
2017-07-05T07:28:15.133Z,25.17
2017-07-05T07:30:44.809Z,20.73
2017-07-05T07:33:13.897Z,26.40
2017-07-05T07:35:42.992Z,23.87
2017-07-05T07:38:12.078Z,23.53
2017-07-05T07:40:41.120Z,24.33
2017-07-05T07:43:10.267Z,23.17
2017-07-05T07:45:39.353Z,25.67
2017-07-05T07:48:08.409Z,25.30
2017-07-05T07:50:38.991Z,24.87
2017-07-05T07:53:09.143Z,24.63
2017-07-05T07:55:38.224Z,25.13
2017-07-05T07:58:07.293Z,27.73
2017-07-05T08:00:36.350Z,23.90
2017-07-05T08:03:05.452Z,28.60
2017-07-05T08:05:34.549Z,25.60
2017-07-05T08:08:03.588Z,27.67
2017-07-05T08:10:32.658Z,26.20
2017-07-05T08:13:01.720Z,26.73
2017-07-05T08:15:30.813Z,31.07
2017-07-05T08:17:59.868Z,30.20
2017-07-05T08:20:28.929Z,32.43
2017-07-05T08:22:58.071Z,35.97
2017-07-05T08:25:27.098Z,32.23
2017-07-05T08:27:56.193Z,32.10
2017-07-05T08:30:25.252Z,32.87
2017-07-05T08:32:54.334Z,35.67
2017-07-05T08:35:23.644Z,35.53
2017-07-05T08:37:52.744Z,38.20
2017-07-05T08:40:21.793Z,39.10
2017-07-05T08:42:50.873Z,34.77
2017-07-05T08:45:19.935Z,37.70
2017-07-05T08:47:49.037Z,38.20
2017-07-05T08:50:18.089Z,47.00
2017-07-05T08:52:47.183Z,38.87
2017-07-05T08:55:16.262Z,33.40
2017-07-05T08:57:45.309Z,34.17
2017-07-05T09:00:14.384Z,32.57
2017-07-05T09:02:43.468Z,34.60
2017-07-05T09:05:12.553Z,39.50
2017-07-05T09:07:41.621Z,36.80
2017-07-05T09:10:10.697Z,38.13
2017-07-05T09:12:39.749Z,37.70
2017-07-05T09:15:08.860Z,34.67
2017-07-05T09:17:37.901Z,34.23
2017-07-05T09:20:07.029Z,31.83
2017-07-05T09:22:36.096Z,36.43
2017-07-05T09:25:05.152Z,35.60
2017-07-05T09:27:34.226Z,34.30
2017-07-05T09:30:03.384Z,39.30
2017-07-05T09:32:32.452Z,33.40
2017-07-05T09:35:01.532Z,31.37
2017-07-05T09:37:30.599Z,33.33
2017-07-05T09:39:59.678Z,28.83
2017-07-05T09:42:28.776Z,35.17
2017-07-05T09:44:57.824Z,34.53
2017-07-05T09:47:26.907Z,32.23
2017-07-05T09:49:55.953Z,34.50
2017-07-05T09:52:25.040Z,28.77
2017-07-05T09:54:54.112Z,33.87
2017-07-05T09:57:23.373Z,33.70
2017-07-05T09:59:52.429Z,31.67
2017-07-05T10:02:21.501Z,33.80
2017-07-05T10:04:50.637Z,29.43
2017-07-05T10:07:19.721Z,34.53
2017-07-05T10:09:48.812Z,33.17
2017-07-05T10:12:17.848Z,32.93
2017-07-05T10:14:46.953Z,32.93
2017-07-05T10:17:16.032Z,29.77
2017-07-05T10:19:45.112Z,31.20
2017-07-05T10:22:14.243Z,34.17
2017-07-05T10:24:43.285Z,31.17
2017-07-05T10:27:12.364Z,29.83
2017-07-05T10:29:41.439Z,27.97
2017-07-05T10:32:10.544Z,22.50
2017-07-05T10:34:39.636Z,26.90
2017-07-05T10:37:08.722Z,29.63
2017-07-05T10:39:37.803Z,29.33
2017-07-05T10:42:06.908Z,27.80
2017-07-05T10:44:36.020Z,26.93
2017-07-05T10:47:05.187Z,34.23
2017-07-05T10:49:34.301Z,27.87
2017-07-05T10:52:03.439Z,29.20
2017-07-05T10:54:32.504Z,29.23
2017-07-05T10:57:01.552Z,24.43
2017-07-05T10:59:30.657Z,24.50
2017-07-05T11:05:08.070Z,22.50
2017-07-05T11:07:38.532Z,25.90
2017-07-05T11:10:09.528Z,19.53
2017-07-05T11:12:39.636Z,17.43
2017-07-05T11:15:09.177Z,19.07
2017-07-05T11:17:38.225Z,18.07
2017-07-05T11:20:07.841Z,18.43
2017-07-05T11:22:36.992Z,20.47
2017-07-05T11:25:06.107Z,16.13
2017-07-05T11:27:35.237Z,16.90
2017-07-05T11:30:04.288Z,16.63
2017-07-05T11:32:33.362Z,20.87
2017-07-05T11:35:02.457Z,17.10
2017-07-05T11:37:31.540Z,15.33
2017-07-05T11:40:00.619Z,19.10
2017-07-05T11:42:29.692Z,16.60
2017-07-05T11:44:58.776Z,20.73
2017-07-05T11:47:27.859Z,18.47
2017-07-05T11:49:56.932Z,20.90
2017-07-05T11:52:26.005Z,18.33
2017-07-05T11:54:55.061Z,17.50
2017-07-05T11:57:24.176Z,18.73
2017-07-05T11:59:53.252Z,15.23
2017-07-05T12:02:22.311Z,17.80
2017-07-05T12:04:51.393Z,17.10
2017-07-05T12:07:20.456Z,15.73
2017-07-05T12:09:49.572Z,15.73
2017-07-05T12:12:18.616Z,21.33
2017-07-05T12:14:47.700Z,15.20
2017-07-05T12:17:16.844Z,14.47
2017-07-05T12:19:45.901Z,15.70
2017-07-05T12:22:15.016Z,16.17
2017-07-05T12:24:44.055Z,14.00
2017-07-05T12:27:13.136Z,15.10
2017-07-05T12:29:42.248Z,15.27
2017-07-05T12:32:11.330Z,14.20
2017-07-05T12:34:40.431Z,14.80
2017-07-05T12:37:09.527Z,15.10
2017-07-05T12:39:38.609Z,20.47
2017-07-05T12:42:07.728Z,17.67
2017-07-05T12:44:36.785Z,16.17
2017-07-05T12:47:05.892Z,19.20
2017-07-05T12:49:34.964Z,15.50
2017-07-05T12:52:04.055Z,15.33
2017-07-05T12:54:33.123Z,16.43
2017-07-05T12:57:02.203Z,16.87
2017-07-05T12:59:31.293Z,15.53
2017-07-05T13:02:00.348Z,14.57
2017-07-05T13:04:29.433Z,23.60
2017-07-05T13:06:58.507Z,16.57
2017-07-05T13:09:27.603Z,18.93
2017-07-05T13:11:56.709Z,15.20
2017-07-05T13:14:25.791Z,15.53
2017-07-05T13:16:54.855Z,13.97
2017-07-05T13:19:23.913Z,16.87
2017-07-05T13:21:52.998Z,23.30
2017-07-05T13:24:22.104Z,17.03
2017-07-05T13:26:51.188Z,18.73
2017-07-05T13:29:20.260Z,14.03
2017-07-05T13:31:49.322Z,13.90
2017-07-05T13:34:18.396Z,15.47
2017-07-05T13:36:47.465Z,16.50
2017-07-05T13:39:16.555Z,17.07
2017-07-05T13:41:45.640Z,18.47
2017-07-05T13:44:14.727Z,16.60
2017-07-05T13:46:43.783Z,15.63
2017-07-05T13:49:12.871Z,14.30
2017-07-05T13:51:41.971Z,13.70
2017-07-05T13:54:11.029Z,16.60
2017-07-05T13:56:40.885Z,17.77
2017-07-05T13:59:09.977Z,18.97
2017-07-05T14:01:39.040Z,15.30
2017-07-05T14:04:08.125Z,17.17
2017-07-05T14:06:37.210Z,14.20
2017-07-05T14:09:06.325Z,15.20
2017-07-05T14:11:35.395Z,18.47
2017-07-05T14:14:04.501Z,16.00
2017-07-05T14:16:33.576Z,16.33
2017-07-05T14:19:02.650Z,13.90
2017-07-05T14:21:31.738Z,18.40
2017-07-05T14:24:00.863Z,14.50
2017-07-05T14:26:29.901Z,13.73
2017-07-05T14:28:58.991Z,15.13
2017-07-05T14:31:28.838Z,13.37
2017-07-05T14:33:57.892Z,14.07
2017-07-05T14:36:27.750Z,12.47
2017-07-05T14:38:56.846Z,12.50
2017-07-05T14:41:25.931Z,13.63
2017-07-05T14:43:55.019Z,14.97
2017-07-05T14:46:24.842Z,12.63
2017-07-05T14:48:53.917Z,13.80
2017-07-05T14:51:22.974Z,12.63
2017-07-05T14:53:52.081Z,13.73
2017-07-05T14:56:21.163Z,13.00
2017-07-05T14:58:50.884Z,14.70
2017-07-05T15:01:19.972Z,13.27
2017-07-05T15:03:49.036Z,15.27
2017-07-05T15:06:18.140Z,14.57
2017-07-05T15:08:47.197Z,15.53
2017-07-05T15:11:16.269Z,15.30
2017-07-05T15:13:46.100Z,15.47
2017-07-05T15:16:15.948Z,16.33
2017-07-05T15:18:45.045Z,15.23
2017-07-05T15:21:14.903Z,16.67
2017-07-05T15:23:43.972Z,13.93
2017-07-05T15:26:13.053Z,13.23
2017-07-05T15:28:42.132Z,14.00
2017-07-05T15:31:11.252Z,13.73
2017-07-05T15:33:40.332Z,15.00
2017-07-05T15:36:09.418Z,12.83
2017-07-05T15:38:39.498Z,12.23
2017-07-05T15:41:08.578Z,12.80
2017-07-05T15:43:37.649Z,10.97
2017-07-05T15:46:06.722Z,13.67
2017-07-05T15:48:35.813Z,12.30
2017-07-05T15:51:04.904Z,11.53
2017-07-05T15:53:33.990Z,13.37
2017-07-05T15:56:03.900Z,13.30
2017-07-05T15:58:33.090Z,12.30
2017-07-05T16:01:02.181Z,12.60
2017-07-05T16:03:32.030Z,13.10
2017-07-05T16:06:01.128Z,12.40
2017-07-05T16:08:30.498Z,11.63
2017-07-05T16:10:59.579Z,11.10
2017-07-05T16:13:28.644Z,11.47
2017-07-05T16:15:57.700Z,12.23
2017-07-05T16:18:26.792Z,11.60
2017-07-05T16:20:55.854Z,10.87
2017-07-05T16:23:24.929Z,10.87
2017-07-05T16:25:53.997Z,16.30
2017-07-05T16:28:23.074Z,12.27
2017-07-05T16:30:52.260Z,13.43
2017-07-05T16:33:21.293Z,10.40
2017-07-05T16:35:50.397Z,10.90
2017-07-05T16:38:19.484Z,12.13
2017-07-05T16:40:48.583Z,13.13
2017-07-05T16:43:17.617Z,11.07
2017-07-05T16:45:47.461Z,10.87
2017-07-05T16:48:17.811Z,11.53
2017-07-05T16:50:46.862Z,11.60
2017-07-05T16:53:16.697Z,10.70
2017-07-05T16:55:45.972Z,10.47
2017-07-05T16:58:15.060Z,10.10
2017-07-05T17:00:44.914Z,11.63
2017-07-05T17:03:14.021Z,11.10
2017-07-05T17:05:43.112Z,11.07
2017-07-05T17:08:12.371Z,11.23
2017-07-05T17:10:41.482Z,10.67
2017-07-05T17:13:11.336Z,10.40
2017-07-05T17:15:40.438Z,10.73
2017-07-05T17:18:09.513Z,10.57
2017-07-05T17:20:38.590Z,11.07
2017-07-05T17:23:07.667Z,10.93
2017-07-05T17:25:37.504Z,10.80
2017-07-05T17:28:06.863Z,10.63
2017-07-05T17:30:35.940Z,9.90
2017-07-05T17:33:05.016Z,10.60
2017-07-05T17:35:34.383Z,10.37
2017-07-05T17:38:03.442Z,12.33
2017-07-05T17:40:32.505Z,10.13
2017-07-05T17:43:01.959Z,10.07
2017-07-05T17:45:31.056Z,10.90
2017-07-05T17:48:01.241Z,9.80
2017-07-05T17:50:30.347Z,11.53
2017-07-05T17:52:59.438Z,10.13
2017-07-05T17:55:28.734Z,9.63
2017-07-05T17:57:57.831Z,10.53
2017-07-05T18:00:26.917Z,10.33
2017-07-05T18:02:55.977Z,13.00
2017-07-05T18:05:25.070Z,10.83
2017-07-05T18:07:54.125Z,10.50
2017-07-05T18:10:23.353Z,12.00
2017-07-05T18:12:53.191Z,10.27
2017-07-05T18:15:22.289Z,9.83
2017-07-05T18:17:51.339Z,10.23
2017-07-05T18:20:20.414Z,10.33
2017-07-05T18:22:49.497Z,9.13
2017-07-05T18:25:18.581Z,9.10
2017-07-05T18:27:47.661Z,10.20
2017-07-05T18:30:16.756Z,8.77
2017-07-05T18:32:46.694Z,8.80
2017-07-05T18:35:15.744Z,9.80
2017-07-05T18:37:44.801Z,10.50
2017-07-05T18:40:14.112Z,8.47
2017-07-05T18:42:43.186Z,7.87
2017-07-05T18:45:12.282Z,8.47
2017-07-05T18:47:41.334Z,8.53
2017-07-05T18:50:10.453Z,8.70
2017-07-05T18:52:39.504Z,8.83
2017-07-05T18:55:09.357Z,8.43
2017-07-05T18:57:38.414Z,8.73
2017-07-05T19:00:08.279Z,11.73
2017-07-05T19:02:37.580Z,9.93
2017-07-05T19:05:06.681Z,8.37
2017-07-05T19:07:35.809Z,13.00
2017-07-05T19:10:04.861Z,8.83
2017-07-05T19:12:33.903Z,9.10
2017-07-05T19:15:03.719Z,9.43
2017-07-05T19:17:33.559Z,9.10
2017-07-05T19:20:03.341Z,9.67
2017-07-05T19:22:32.448Z,9.67
2017-07-05T19:25:02.270Z,8.57
2017-07-05T19:27:31.351Z,9.07
2017-07-05T19:30:00.404Z,10.23
2017-07-05T19:32:29.724Z,10.40
2017-07-05T19:34:58.784Z,11.07
2017-07-05T19:37:27.861Z,10.03
2017-07-05T19:39:56.956Z,10.60
2017-07-05T19:42:26.033Z,10.77
2017-07-05T19:44:55.861Z,12.73
2017-07-05T19:47:24.958Z,11.63
2017-07-05T19:49:54.040Z,12.60
2017-07-05T19:52:23.897Z,17.13
2017-07-05T19:54:52.933Z,13.10
2017-07-05T19:57:22.816Z,15.10
2017-07-05T19:59:51.904Z,13.00
2017-07-05T20:02:20.975Z,14.00
2017-07-05T20:04:50.061Z,15.03
2017-07-05T20:07:19.141Z,13.60
2017-07-05T20:09:48.226Z,14.17
2017-07-05T20:12:18.072Z,14.37
2017-07-05T20:14:47.147Z,13.50
2017-07-05T20:17:17.009Z,15.40
2017-07-05T20:19:46.064Z,13.60
2017-07-05T20:22:15.149Z,13.97
2017-07-05T20:24:44.973Z,13.50
2017-07-05T20:27:14.081Z,15.77
2017-07-05T20:29:43.151Z,14.13
2017-07-05T20:32:12.275Z,13.67
2017-07-05T20:34:41.356Z,13.50
2017-07-05T20:37:10.447Z,13.77
2017-07-05T20:39:40.297Z,15.03
2017-07-05T20:42:09.700Z,14.77
2017-07-05T20:44:38.762Z,14.70
2017-07-05T20:47:07.851Z,16.13
2017-07-05T20:49:36.940Z,16.40
2017-07-05T20:52:06.843Z,14.23
2017-07-05T20:54:35.911Z,13.73
2017-07-05T20:57:04.992Z,15.60
2017-07-05T20:59:34.122Z,15.30
2017-07-05T21:02:03.167Z,16.27
2017-07-05T21:04:32.261Z,14.90
2017-07-05T21:07:02.176Z,14.87
2017-07-05T21:09:31.293Z,14.00
2017-07-05T21:12:00.343Z,16.17
2017-07-05T21:14:29.496Z,16.20
2017-07-05T21:16:58.616Z,15.33
2017-07-05T21:19:27.669Z,15.10
2017-07-05T21:21:56.788Z,15.47
2017-07-05T21:24:25.861Z,15.90
2017-07-05T21:26:54.920Z,15.30
2017-07-05T21:29:23.981Z,16.20
2017-07-05T21:31:53.862Z,15.20
2017-07-05T21:34:22.917Z,15.67
2017-07-05T21:36:52.989Z,16.17
2017-07-05T21:39:22.070Z,15.63
2017-07-05T21:41:51.145Z,22.83
2017-07-05T21:44:20.204Z,18.70
2017-07-05T21:46:50.081Z,16.33
2017-07-05T21:49:19.173Z,15.83
2017-07-05T21:51:48.402Z,14.63
2017-07-05T21:54:17.477Z,16.73
2017-07-05T21:56:46.523Z,15.13
2017-07-05T21:59:15.641Z,17.70
2017-07-05T22:01:44.705Z,19.60
2017-07-05T22:04:13.782Z,15.90
2017-07-05T22:06:42.881Z,18.23
2017-07-05T22:09:11.935Z,15.10
2017-07-05T22:11:41.012Z,14.40
2017-07-05T22:14:10.133Z,15.00
2017-07-05T22:16:39.191Z,13.17
2017-07-05T22:19:08.247Z,15.03
2017-07-05T22:21:37.353Z,17.00
2017-07-05T22:24:06.458Z,16.40
2017-07-05T22:26:35.520Z,16.93
2017-07-05T22:29:04.620Z,13.83
2017-07-05T22:31:33.688Z,18.30
2017-07-05T22:34:02.760Z,13.77
2017-07-05T22:36:31.851Z,13.50
2017-07-05T22:39:00.944Z,12.83
2017-07-05T22:41:30.041Z,13.20
2017-07-05T22:43:59.183Z,15.40
2017-07-05T22:46:28.326Z,14.03
2017-07-05T22:48:57.421Z,11.70
2017-07-05T22:51:26.467Z,12.87
2017-07-05T22:53:55.531Z,13.10
2017-07-05T22:56:24.632Z,13.03
2017-07-05T22:58:53.673Z,12.70
2017-07-05T23:01:22.816Z,13.47
2017-07-05T23:03:51.899Z,14.07
2017-07-05T23:06:21.005Z,12.60
2017-07-05T23:08:50.057Z,12.93
2017-07-05T23:11:19.396Z,12.87
2017-07-05T23:13:48.565Z,13.03
2017-07-05T23:16:17.661Z,13.50
2017-07-05T23:18:46.699Z,13.83
2017-07-05T23:21:15.812Z,12.73
2017-07-05T23:23:44.874Z,15.13
2017-07-05T23:26:13.964Z,12.77
2017-07-05T23:28:43.036Z,13.03
2017-07-05T23:31:12.112Z,13.20
2017-07-05T23:33:41.173Z,12.93
2017-07-05T23:36:10.235Z,13.80
2017-07-05T23:38:39.325Z,14.47
2017-07-05T23:41:08.431Z,15.10
2017-07-05T23:43:37.461Z,13.80
2017-07-05T23:46:06.532Z,17.70
2017-07-05T23:48:35.631Z,13.93
2017-07-05T23:51:04.773Z,15.00
2017-07-05T23:53:33.868Z,14.10
2017-07-05T23:56:02.956Z,15.43
2017-07-05T23:58:32.058Z,14.37
